Terminal Aerodrome Forecast
Issued by NWS

Home | Current Version | Previous Version | Text Only | Print | Product List | Glossary On
Versions: 1 2 3 4 5 6 7 8 9 10 11 12 13 14 15 16 17 18 19 20 21 22 23 24 25 26 27 28 29 30 31 32
000
FTUS43 KLOT 232327
TAFMDW
TAF
KMDW 232327Z 2400/2424 05012KT P6SM -SHRA OVC010
     FM240300 05012KT 5SM -SHRA BR OVC007
     FM240500 06014KT 3SM SHRA BR OVC005
      TEMPO 2405/2408 2SM TSRA BR OVC008CB
     FM241000 04010KT 1 1/2SM -RADZ BR VCSH OVC004 PROB30 2411/2416
      3/4SM -DZ BR VV003
     FM241900 01007KT 3SM BR VCSH OVC007
     FM242200 28009KT P6SM SCT007 BKN015=

USA.gov is the U.S. government's official web portal to all federal, state and local government web resources and services.